Time;durP1;ratioP1;P1;durP2;ratioP2;P2;SDS_P1;SDS_P2;PMS_P1;PMS_P2;Temp;Humidity;BMP_temperature;BMP_pressure;BME280_temperature;BME280_humidity;BME280_pressure;Samples;Min_cycle;Max_cycle;Signal;HPM_P1;HPM_P2
2022/07/20 00:01:29;;;;;;;9.95;2.80;;;23.60;49.10;;;;;;4881538;29;20047;-65
2022/07/20 00:03:56;;;;;;;7.47;2.58;;;23.60;49.10;;;;;;4889597;29;20050;-66
2022/07/20 00:06:25;;;;;;;5.10;2.20;;;23.50;49.50;;;;;;4886261;29;20067;-67
2022/07/20 00:11:36;;;;;;;4.85;2.22;;;23.40;49.60;;;;;;4900507;29;20223;-66
2022/07/20 00:14:05;;;;;;;5.28;2.70;;;23.30;49.90;;;;;;4886094;29;20072;-66
2022/07/20 00:16:34;;;;;;;5.90;2.25;;;23.20;50.30;;;;;;4881696;29;20749;-66
2022/07/20 00:19:01;;;;;;;5.68;2.53;;;23.20;50.60;;;;;;4888129;29;20101;-64
2022/07/20 00:21:30;;;;;;;4.95;2.03;;;23.10;50.90;;;;;;4877772;29;20559;-64
2022/07/20 00:23:57;;;;;;;5.63;2.42;;;23.10;51.10;;;;;;4872403;29;20053;-66
2022/07/20 00:26:24;;;;;;;4.72;1.90;;;23.10;51.20;;;;;;4885254;29;20068;-65
2022/07/20 00:28:51;;;;;;;4.32;2.08;;;23.00;51.30;;;;;;4883939;29;20059;-66
2022/07/20 00:31:20;;;;;;;6.38;2.38;;;23.00;51.30;;;;;;4887786;29;20064;-65
2022/07/20 00:33:48;;;;;;;4.65;2.10;;;22.90;51.40;;;;;;4885899;29;20040;-66
2022/07/20 00:36:15;;;;;;;5.32;2.50;;;22.90;51.30;;;;;;4879066;29;20053;-66
2022/07/20 00:38:42;;;;;;;8.27;2.17;;;22.80;51.70;;;;;;4889707;29;20135;-65
2022/07/20 00:41:09;;;;;;;4.25;2.08;;;22.80;51.50;;;;;;4886027;29;20064;-66
2022/07/20 00:43:57;;;;;;;6.65;2.50;;;22.80;51.40;;;;;;4887037;29;20068;-67
2022/07/20 00:46:26;;;;;;;5.55;2.28;;;22.80;51.60;;;;;;4883648;29;20491;-64
2022/07/20 00:48:53;;;;;;;7.72;2.33;;;22.80;51.60;;;;;;4882305;29;20100;-65
2022/07/20 00:51:20;;;;;;;5.53;2.20;;;22.70;51.70;;;;;;4876090;29;20101;-65
2022/07/20 00:53:47;;;;;;;5.80;2.42;;;22.70;51.70;;;;;;4892820;29;20168;-67
2022/07/20 00:56:17;;;;;;;5.45;2.47;;;22.70;51.60;;;;;;4882827;29;20056;-64
2022/07/20 00:58:44;;;;;;;5.28;2.30;;;22.70;51.30;;;;;;4883586;29;20514;-65
2022/07/20 01:01:11;;;;;;;7.82;1.90;;;22.70;51.30;;;;;;4886569;29;20146;-65
2022/07/20 01:03:39;;;;;;;5.88;2.45;;;22.70;51.40;;;;;;4887019;29;20060;-66
2022/07/20 01:06:07;;;;;;;7.28;2.80;;;22.60;51.40;;;;;;4884408;29;20065;-65
2022/07/20 01:08:34;;;;;;;4.75;2.28;;;22.60;51.60;;;;;;4881251;29;20059;-65
2022/07/20 01:11:02;;;;;;;3.92;2.10;;;22.60;51.80;;;;;;4888573;29;20052;-65
2022/07/20 01:13:29;;;;;;;5.15;2.42;;;22.50;52.20;;;;;;4890268;29;20040;-65
2022/07/20 01:15:56;;;;;;;5.15;2.35;;;22.50;52.40;;;;;;4883815;29;20061;-65
2022/07/20 01:18:23;;;;;;;3.72;1.90;;;22.30;52.60;;;;;;4885632;29;20105;-65
2022/07/20 01:20:52;;;;;;;4.63;1.90;;;22.30;52.70;;;;;;4884981;29;20056;-66
2022/07/20 01:23:21;;;;;;;5.53;2.30;;;22.30;52.80;;;;;;4881164;29;20048;-66
2022/07/20 01:25:47;;;;;;;5.78;2.30;;;22.30;52.70;;;;;;4897180;29;20574;-66
2022/07/20 01:28:15;;;;;;;7.25;2.38;;;22.20;52.80;;;;;;4893079;29;20044;-65
2022/07/20 01:30:43;;;;;;;7.30;2.83;;;22.30;52.70;;;;;;4889702;29;20168;-67
2022/07/20 01:33:10;;;;;;;8.30;2.50;;;22.20;52.70;;;;;;4887914;29;20048;-66
2022/07/20 01:35:37;;;;;;;5.35;2.45;;;22.20;52.70;;;;;;4889387;29;20063;-65
2022/07/20 01:38:04;;;;;;;6.30;2.80;;;22.10;52.70;;;;;;4891756;29;20048;-64
2022/07/20 01:40:33;;;;;;;8.80;2.35;;;22.20;52.40;;;;;;4888752;29;20071;-66
2022/07/20 01:43:00;;;;;;;4.82;2.45;;;22.30;52.00;;;;;;4887983;29;20070;-65
2022/07/20 01:45:27;;;;;;;7.75;2.50;;;22.20;52.20;;;;;;4886492;29;20053;-68
2022/07/20 01:47:53;;;;;;;7.95;3.15;;;22.20;52.30;;;;;;4887662;29;20473;-66
2022/07/20 01:50:21;;;;;;;4.07;1.90;;;22.10;52.40;;;;;;4900138;29;20495;-65
2022/07/20 01:52:49;;;;;;;4.68;1.92;;;22.10;52.50;;;;;;4902619;29;20052;-66
2022/07/20 01:55:16;;;;;;;7.30;2.00;;;22.10;52.50;;;;;;4896140;29;20056;-66
2022/07/20 01:57:45;;;;;;;3.92;2.03;;;22.10;52.50;;;;;;4893923;29;20075;-66
2022/07/20 02:00:13;;;;;;;5.75;2.08;;;22.00;52.60;;;;;;4887873;29;20048;-66
2022/07/20 02:02:40;;;;;;;6.30;2.20;;;22.00;52.70;;;;;;4887001;29;20060;-65
2022/07/20 02:05:09;;;;;;;5.63;1.88;;;22.00;53.00;;;;;;4895030;29;20131;-66
2022/07/20 02:07:36;;;;;;;4.57;2.00;;;21.90;53.20;;;;;;4899072;29;20072;-65
2022/07/20 02:10:05;;;;;;;7.50;2.25;;;21.90;53.50;;;;;;4886319;29;20049;-65
2022/07/20 02:12:32;;;;;;;7.70;2.45;;;21.80;53.60;;;;;;4901750;29;20462;-66
2022/07/20 02:15:01;;;;;;;4.65;2.63;;;21.70;53.70;;;;;;4901472;29;20455;-63
2022/07/20 02:17:28;;;;;;;5.72;2.25;;;21.70;53.80;;;;;;4890302;29;20665;-67
2022/07/20 02:19:55;;;;;;;7.63;2.47;;;21.70;53.80;;;;;;4888493;29;20064;-64
2022/07/20 02:22:22;;;;;;;7.07;2.67;;;21.60;53.90;;;;;;4886838;29;20059;-65
2022/07/20 02:24:49;;;;;;;4.72;2.20;;;21.60;54.10;;;;;;4887088;29;20045;-65
2022/07/20 02:27:16;;;;;;;3.90;2.17;;;21.60;54.30;;;;;;4888194;29;20062;-66
2022/07/20 02:29:43;;;;;;;6.18;2.83;;;21.60;54.40;;;;;;4885831;29;20052;-66
2022/07/20 02:32:11;;;;;;;4.38;2.30;;;21.70;54.00;;;;;;4876306;29;20063;-65
2022/07/20 02:34:38;;;;;;;4.50;2.60;;;21.70;53.70;;;;;;4888079;29;20056;-67
2022/07/20 02:37:05;;;;;;;5.97;2.55;;;21.70;53.70;;;;;;4871774;29;20053;-65
2022/07/20 02:39:32;;;;;;;4.47;2.30;;;21.60;54.00;;;;;;4899751;29;20091;-65
2022/07/20 02:41:58;;;;;;;6.25;2.17;;;21.60;54.40;;;;;;4887283;29;20518;-66
2022/07/20 02:44:25;;;;;;;6.10;2.22;;;21.50;54.50;;;;;;4894103;29;20435;-65
2022/07/20 02:46:52;;;;;;;6.63;1.92;;;21.40;54.80;;;;;;4885384;29;20056;-64
2022/07/20 02:49:20;;;;;;;6.03;2.20;;;21.40;54.90;;;;;;4889969;29;20044;-66
2022/07/20 02:51:47;;;;;;;4.75;2.28;;;21.30;55.00;;;;;;4886401;29;20064;-65
2022/07/20 02:54:14;;;;;;;3.72;2.08;;;21.30;54.90;;;;;;4901663;29;20044;-63
2022/07/20 02:56:41;;;;;;;8.07;2.20;;;21.30;55.10;;;;;;4887033;29;20068;-66
2022/07/20 02:59:08;;;;;;;5.20;2.22;;;21.30;54.90;;;;;;4895763;29;20063;-64
2022/07/20 03:01:35;;;;;;;5.03;2.47;;;21.20;55.30;;;;;;4886018;29;20056;-65
2022/07/20 03:04:02;;;;;;;5.22;2.20;;;21.10;55.50;;;;;;4887696;29;20056;-66
2022/07/20 03:06:30;;;;;;;4.18;2.00;;;21.20;55.20;;;;;;4886516;29;20411;-67
2022/07/20 03:08:57;;;;;;;3.97;2.22;;;21.10;55.20;;;;;;4887361;29;20057;-65
2022/07/20 03:11:24;;;;;;;7.35;2.60;;;21.10;55.30;;;;;;4890674;29;20055;-63
2022/07/20 03:13:51;;;;;;;7.70;2.40;;;21.10;55.10;;;;;;4888534;29;20430;-63
2022/07/20 03:16:18;;;;;;;3.88;2.30;;;21.10;54.90;;;;;;4880833;29;20053;-63
2022/07/20 03:18:44;;;;;;;5.60;2.28;;;21.10;55.10;;;;;;4892939;29;20036;-63
2022/07/20 03:21:11;;;;;;;5.57;2.25;;;21.00;55.50;;;;;;4886750;29;20052;-63
2022/07/20 03:23:40;;;;;;;4.53;2.00;;;21.00;55.70;;;;;;4898380;29;20052;-65
2022/07/20 03:26:07;;;;;;;4.35;2.35;;;21.00;55.60;;;;;;4895360;29;20056;-65
2022/07/20 03:28:34;;;;;;;4.20;2.47;;;20.90;55.70;;;;;;4890110;29;20144;-65
2022/07/20 03:31:00;;;;;;;3.58;2.33;;;20.90;55.60;;;;;;4882517;29;21051;-64
2022/07/20 03:33:28;;;;;;;7.57;2.38;;;20.90;55.70;;;;;;4893539;29;20056;-63
2022/07/20 03:35:55;;;;;;;6.15;2.20;;;20.90;56.10;;;;;;4890697;29;20055;-64
2022/07/20 03:38:22;;;;;;;3.50;1.80;;;20.90;56.30;;;;;;4891338;29;20052;-64
2022/07/20 03:40:50;;;;;;;4.43;2.47;;;20.80;56.50;;;;;;4897812;29;20143;-64
2022/07/20 03:43:17;;;;;;;5.60;2.63;;;20.80;56.60;;;;;;4895795;29;20057;-65
2022/07/20 03:45:44;;;;;;;8.18;2.53;;;20.70;56.90;;;;;;4884235;29;20056;-63
2022/07/20 03:48:11;;;;;;;3.42;2.20;;;20.70;57.10;;;;;;4892680;29;20418;-64
2022/07/20 03:50:38;;;;;;;4.35;2.17;;;20.60;57.30;;;;;;4893004;29;20057;-64
2022/07/20 03:53:05;;;;;;;7.88;2.55;;;20.60;57.40;;;;;;4897051;29;20492;-63
2022/07/20 03:55:32;;;;;;;5.63;2.65;;;20.60;57.40;;;;;;4888059;29;20049;-64
2022/07/20 03:58:00;;;;;;;6.07;2.35;;;20.60;57.40;;;;;;4895493;29;20051;-64
2022/07/20 04:00:27;;;;;;;3.85;1.88;;;20.60;57.40;;;;;;4885642;29;20051;-63
2022/07/20 04:02:54;;;;;;;4.40;2.13;;;20.60;57.50;;;;;;4897483;29;20056;-64
2022/07/20 04:05:21;;;;;;;6.55;2.70;;;20.60;57.60;;;;;;4886878;29;20859;-64
2022/07/20 04:07:48;;;;;;;5.22;2.95;;;20.60;57.60;;;;;;4895960;29;20060;-64
2022/07/20 04:10:15;;;;;;;6.07;2.45;;;20.60;57.70;;;;;;4886116;29;20072;-64
2022/07/20 04:12:42;;;;;;;4.68;2.20;;;20.60;57.40;;;;;;4896068;29;20054;-65
2022/07/20 04:15:11;;;;;;;7.93;2.05;;;20.60;57.60;;;;;;4889394;29;20052;-64
2022/07/20 04:17:41;;;;;;;7.35;2.33;;;20.50;57.80;;;;;;4886064;29;20546;-64
2022/07/20 04:20:09;;;;;;;6.65;2.83;;;20.50;58.00;;;;;;4895030;29;20052;-63
2022/07/20 04:22:36;;;;;;;5.65;2.72;;;20.60;57.80;;;;;;4896750;29;20076;-63
2022/07/20 04:25:03;;;;;;;6.30;2.92;;;20.60;57.50;;;;;;4892540;29;20056;-64
2022/07/20 04:27:30;;;;;;;9.23;2.95;;;20.60;57.20;;;;;;4890138;29;20163;-64
2022/07/20 04:29:57;;;;;;;5.90;2.75;;;20.60;56.80;;;;;;4891578;29;20125;-64
2022/07/20 04:32:25;;;;;;;5.32;2.42;;;20.60;56.70;;;;;;4893615;29;20063;-62
2022/07/20 04:34:52;;;;;;;6.88;2.45;;;20.60;56.70;;;;;;4891056;29;20056;-63
2022/07/20 04:37:19;;;;;;;5.43;2.38;;;20.70;56.60;;;;;;4887956;29;20101;-63
2022/07/20 04:39:46;;;;;;;4.28;2.10;;;20.60;56.90;;;;;;4885106;29;20049;-65
2022/07/20 04:42:13;;;;;;;4.45;2.35;;;20.60;57.00;;;;;;4886014;29;20048;-63
2022/07/20 04:44:39;;;;;;;7.80;2.75;;;20.60;57.10;;;;;;4880591;29;20056;-64
2022/07/20 04:47:06;;;;;;;7.85;2.80;;;20.60;57.10;;;;;;4878842;29;20045;-64
2022/07/20 04:49:35;;;;;;;5.60;2.67;;;20.60;57.10;;;;;;4888092;29;20051;-64
2022/07/20 04:52:02;;;;;;;5.70;2.78;;;20.70;57.20;;;;;;4878171;29;20052;-67
2022/07/20 04:54:29;;;;;;;6.15;3.03;;;20.70;57.00;;;;;;4882636;29;20109;-63
2022/07/20 04:56:56;;;;;;;5.65;2.50;;;20.70;57.00;;;;;;4878316;29;20491;-63
2022/07/20 04:59:23;;;;;;;4.93;2.75;;;20.70;56.60;;;;;;4882359;29;20443;-65
2022/07/20 05:01:50;;;;;;;6.13;2.90;;;20.80;56.70;;;;;;4886682;29;20055;-64
2022/07/20 05:04:17;;;;;;;6.75;3.00;;;20.80;56.70;;;;;;4896012;29;20468;-64
2022/07/20 05:06:45;;;;;;;7.32;2.50;;;20.80;56.70;;;;;;4891869;29;20052;-64
2022/07/20 05:09:12;;;;;;;6.57;2.55;;;20.90;56.60;;;;;;4887374;29;20414;-64
2022/07/20 05:11:39;;;;;;;7.78;2.88;;;20.90;56.50;;;;;;4904770;29;20052;-63
2022/07/20 05:14:08;;;;;;;7.05;2.72;;;20.90;56.50;;;;;;4881091;29;20621;-63
2022/07/20 05:16:36;;;;;;;5.43;2.83;;;20.90;56.50;;;;;;4879830;29;20065;-64
2022/07/20 05:19:02;;;;;;;7.85;3.00;;;21.00;56.40;;;;;;4888115;29;20060;-64
2022/07/20 05:21:29;;;;;;;7.45;2.72;;;21.00;56.30;;;;;;4875311;29;20411;-63
2022/07/20 05:23:58;;;;;;;8.75;2.65;;;21.00;56.30;;;;;;4893166;29;20061;-65
2022/07/20 05:26:24;;;;;;;5.80;2.88;;;21.00;56.20;;;;;;4891884;29;20072;-63
2022/07/20 05:28:51;;;;;;;6.25;2.70;;;21.10;56.30;;;;;;4880248;29;20164;-63
2022/07/20 05:31:18;;;;;;;5.05;2.50;;;21.10;56.50;;;;;;4887981;29;20650;-64
2022/07/20 05:33:45;;;;;;;6.72;2.83;;;21.10;56.60;;;;;;4877726;29;20045;-63
2022/07/20 05:36:12;;;;;;;10.90;3.25;;;21.10;56.70;;;;;;4879366;29;20044;-65
2022/07/20 05:38:39;;;;;;;6.28;2.78;;;21.10;57.00;;;;;;4882694;29;20061;-64
2022/07/20 05:41:08;;;;;;;8.20;2.50;;;21.20;57.30;;;;;;4878082;29;20087;-64
2022/07/20 05:43:35;;;;;;;7.70;2.20;;;21.10;57.40;;;;;;4883759;29;20060;-63
2022/07/20 05:46:02;;;;;;;9.07;2.72;;;21.20;57.40;;;;;;4878569;29;20052;-65
2022/07/20 05:48:30;;;;;;;6.20;2.55;;;21.20;57.40;;;;;;4878976;29;20048;-64
2022/07/20 05:50:57;;;;;;;4.80;2.72;;;21.20;57.60;;;;;;4880511;29;20053;-64
2022/07/20 05:53:24;;;;;;;6.15;2.65;;;21.20;58.10;;;;;;4878643;29;20061;-64
2022/07/20 05:55:50;;;;;;;7.18;2.60;;;21.20;58.10;;;;;;4880695;29;20484;-63
2022/07/20 05:58:20;;;;;;;8.40;2.65;;;21.30;57.90;;;;;;4874951;29;20120;-65
2022/07/20 06:00:46;;;;;;;5.70;2.65;;;21.40;58.00;;;;;;4880497;29;20048;-63
2022/07/20 06:03:13;;;;;;;5.32;2.50;;;21.40;57.80;;;;;;4884997;29;20056;-64
2022/07/20 06:05:40;;;;;;;5.35;2.63;;;21.50;58.00;;;;;;4885749;29;20052;-63
2022/07/20 06:08:07;;;;;;;8.18;2.60;;;21.50;57.80;;;;;;4882800;29;20136;-63
2022/07/20 06:10:36;;;;;;;7.60;2.90;;;21.50;57.90;;;;;;4880905;29;20060;-64
2022/07/20 06:13:04;;;;;;;5.55;2.88;;;21.60;57.80;;;;;;4887105;29;20045;-65
2022/07/20 06:15:33;;;;;;;6.72;2.83;;;21.60;57.80;;;;;;4868987;29;20053;-64
2022/07/20 06:18:00;;;;;;;4.30;2.45;;;21.60;57.60;;;;;;4886842;29;20045;-62
2022/07/20 06:20:27;;;;;;;6.10;2.20;;;21.70;57.70;;;;;;4887074;29;20045;-66
2022/07/20 06:22:53;;;;;;;4.70;2.05;;;21.70;57.60;;;;;;4887607;29;20052;-64
2022/07/20 06:25:20;;;;;;;4.82;2.33;;;21.80;57.60;;;;;;4883357;29;20070;-64
2022/07/20 06:27:47;;;;;;;4.15;2.20;;;21.90;57.60;;;;;;4894784;29;20060;-63
2022/07/20 06:30:14;;;;;;;5.63;2.50;;;22.00;57.60;;;;;;4885506;29;20195;-65
2022/07/20 06:32:43;;;;;;;4.93;2.53;;;22.00;57.50;;;;;;4884357;29;20049;-65
2022/07/20 06:35:11;;;;;;;5.25;2.33;;;22.10;57.30;;;;;;4891871;29;20049;-63
2022/07/20 06:37:38;;;;;;;4.38;2.17;;;22.20;57.00;;;;;;4883500;29;20056;-64
2022/07/20 06:40:07;;;;;;;5.30;2.58;;;22.20;56.90;;;;;;4888727;29;20052;-63
2022/07/20 06:42:34;;;;;;;4.07;2.40;;;22.30;56.80;;;;;;4884930;29;20140;-64
2022/07/20 06:45:01;;;;;;;4.55;2.40;;;22.50;56.60;;;;;;4879507;29;20052;-64
2022/07/20 06:47:28;;;;;;;5.22;2.47;;;22.60;56.40;;;;;;4885127;29;20051;-64
2022/07/20 06:49:56;;;;;;;5.38;2.17;;;22.80;56.30;;;;;;4884436;29;20495;-65
2022/07/20 06:52:23;;;;;;;6.15;2.67;;;22.90;56.20;;;;;;4885914;29;20167;-64
2022/07/20 06:54:50;;;;;;;4.25;2.20;;;23.10;55.70;;;;;;4885875;29;20052;-63
2022/07/20 06:57:17;;;;;;;3.80;2.20;;;23.30;55.50;;;;;;4890202;29;20048;-64
2022/07/20 06:59:44;;;;;;;5.47;2.25;;;23.40;55.30;;;;;;4880089;29;20075;-64
2022/07/20 07:02:11;;;;;;;6.00;2.58;;;23.70;54.30;;;;;;4879219;29;20056;-63
2022/07/20 07:04:38;;;;;;;4.65;2.20;;;23.90;53.90;;;;;;4893191;29;20056;-63
2022/07/20 07:07:06;;;;;;;5.07;2.13;;;24.10;53.60;;;;;;4886101;29;20059;-64
2022/07/20 07:09:33;;;;;;;4.10;2.00;;;24.30;53.00;;;;;;4887749;29;20049;-63
2022/07/20 07:12:00;;;;;;;7.25;2.55;;;24.50;52.80;;;;;;4889106;29;20199;-64
2022/07/20 07:14:29;;;;;;;5.72;2.10;;;24.60;52.30;;;;;;4906450;29;20053;-65
2022/07/20 07:16:55;;;;;;;6.65;2.03;;;24.80;51.70;;;;;;4882200;29;20131;-65
2022/07/20 07:19:22;;;;;;;6.57;2.72;;;25.10;51.30;;;;;;4887641;29;20053;-64
2022/07/20 07:21:49;;;;;;;4.93;2.30;;;25.30;50.30;;;;;;4884986;29;20041;-65
2022/07/20 07:24:18;;;;;;;4.53;2.50;;;25.60;49.70;;;;;;4887935;29;20052;-63
2022/07/20 07:26:44;;;;;;;7.10;3.03;;;25.80;48.90;;;;;;4883409;29;20059;-65
2022/07/20 07:29:12;;;;;;;8.95;2.80;;;25.90;47.90;;;;;;4881964;29;20410;-63
2022/07/20 07:31:39;;;;;;;9.60;3.05;;;26.10;48.20;;;;;;4888880;29;20044;-64
2022/07/20 07:34:06;;;;;;;6.13;2.78;;;26.30;46.80;;;;;;4892664;29;20056;-64
2022/07/20 07:36:33;;;;;;;6.13;2.67;;;26.40;46.90;;;;;;4902184;29;20083;-63
2022/07/20 07:39:00;;;;;;;5.50;2.60;;;26.50;47.20;;;;;;4893613;29;20057;-65
2022/07/20 07:41:28;;;;;;;7.80;2.55;;;26.60;47.00;;;;;;4884285;29;20112;-63
2022/07/20 07:43:55;;;;;;;4.50;2.70;;;26.80;45.60;;;;;;4900319;29;20086;-65
2022/07/20 07:46:22;;;;;;;4.88;2.40;;;27.00;46.10;;;;;;4893149;29;20075;-63
2022/07/20 07:48:50;;;;;;;4.95;2.55;;;27.10;45.80;;;;;;4894451;29;20063;-63
2022/07/20 07:51:17;;;;;;;5.88;2.33;;;27.30;45.10;;;;;;4881662;29;20043;-65
2022/07/20 07:53:44;;;;;;;6.53;2.08;;;27.50;44.50;;;;;;4898431;29;20139;-64
2022/07/20 07:56:12;;;;;;;5.68;2.47;;;27.60;44.40;;;;;;4895523;29;20490;-65
2022/07/20 07:58:40;;;;;;;4.50;2.10;;;27.70;44.30;;;;;;4903286;29;20080;-66
2022/07/20 08:01:07;;;;;;;3.97;2.10;;;27.80;44.00;;;;;;4893714;29;20053;-70
2022/07/20 08:03:34;;;;;;;5.20;2.65;;;27.90;44.20;;;;;;4893254;29;20058;-70
2022/07/20 08:06:01;;;;;;;7.25;2.70;;;27.90;44.20;;;;;;4903622;29;20509;-69
2022/07/20 08:08:29;;;;;;;6.30;2.78;;;28.00;44.10;;;;;;4891677;29;20069;-69
2022/07/20 08:10:56;;;;;;;7.18;2.38;;;28.10;43.60;;;;;;4892761;29;20085;-69
2022/07/20 08:13:23;;;;;;;5.68;2.78;;;28.30;43.50;;;;;;4894164;29;20402;-69
2022/07/20 08:15:51;;;;;;;9.80;3.08;;;28.40;43.70;;;;;;4896040;29;20439;-69
2022/07/20 08:18:18;;;;;;;5.00;2.80;;;28.40;43.20;;;;;;4898809;29;20047;-68
2022/07/20 08:20:45;;;;;;;5.30;2.83;;;28.60;43.00;;;;;;4893159;29;20422;-69
2022/07/20 08:23:12;;;;;;;4.47;2.25;;;28.80;42.70;;;;;;4898613;29;20140;-70
2022/07/20 08:25:39;;;;;;;5.80;2.47;;;28.90;42.70;;;;;;4888673;29;20069;-71
2022/07/20 08:28:11;;;;;;;4.82;2.28;;;29.00;42.20;;;;;;4897131;29;20055;-69
2022/07/20 08:30:39;;;;;;;7.07;2.42;;;29.10;42.20;;;;;;4892662;29;20061;-70
2022/07/20 08:33:07;;;;;;;5.10;2.33;;;29.20;42.00;;;;;;4895850;29;20065;-69
2022/07/20 08:35:35;;;;;;;5.30;2.30;;;29.30;41.90;;;;;;4894744;29;20056;-70
2022/07/20 08:38:02;;;;;;;5.00;2.47;;;29.30;42.00;;;;;;4898324;29;20056;-69
2022/07/20 08:40:29;;;;;;;6.47;2.67;;;29.60;41.40;;;;;;4894464;29;20049;-69
2022/07/20 08:42:57;;;;;;;5.25;2.92;;;29.60;41.60;;;;;;4888786;29;20049;-67
2022/07/20 08:45:24;;;;;;;6.47;3.40;;;29.70;41.40;;;;;;4889149;29;20041;-69
2022/07/20 08:47:53;;;;;;;5.78;3.10;;;29.80;41.60;;;;;;4888461;29;20460;-71
2022/07/20 08:50:25;;;;;;;7.43;3.00;;;30.00;41.30;;;;;;4883979;29;20052;-71
2022/07/20 08:52:53;;;;;;;6.00;2.58;;;30.20;41.00;;;;;;4888218;29;20779;-69
2022/07/20 08:55:20;;;;;;;7.13;2.53;;;30.30;40.90;;;;;;4887249;29;20044;-69
2022/07/20 08:57:47;;;;;;;7.53;3.03;;;30.50;40.70;;;;;;4888503;29;20056;-69
2022/07/20 09:00:15;;;;;;;5.80;2.90;;;30.50;40.60;;;;;;4893244;29;20102;-68
2022/07/20 09:02:51;;;;;;;6.78;3.00;;;30.60;40.60;;;;;;4892075;29;20060;-69
2022/07/20 09:05:20;;;;;;;6.57;3.20;;;30.70;40.60;;;;;;4883958;29;20045;-70
2022/07/20 09:07:50;;;;;;;7.90;2.67;;;30.90;39.70;;;;;;4888015;29;20196;-71
2022/07/20 09:10:19;;;;;;;8.48;3.05;;;31.10;39.70;;;;;;4871251;29;20045;-70
2022/07/20 09:12:50;;;;;;;;;;;31.30;39.50;;;;;;4872336;29;20835;-70
2022/07/20 09:15:26;;;;;;;10.25;2.90;;;31.40;39.30;;;;;;4883869;29;19939;-71
2022/07/20 09:18:03;;;;;;;5.65;2.47;;;31.50;39.50;;;;;;4887598;29;20452;-69
2022/07/20 09:20:31;;;;;;;7.60;3.35;;;31.60;39.20;;;;;;4891132;29;20040;-72
2022/07/20 09:23:02;;;;;;;10.20;3.30;;;31.70;39.10;;;;;;4877933;29;20418;-70
2022/07/20 09:25:29;;;;;;;6.15;2.88;;;31.80;39.10;;;;;;4875088;29;20044;-69
2022/07/20 09:27:57;;;;;;;6.47;2.63;;;31.90;39.00;;;;;;4878223;29;20056;-69
2022/07/20 09:30:25;;;;;;;5.68;2.80;;;32.00;38.80;;;;;;4878896;29;20060;-70
2022/07/20 09:32:58;;;;;;;6.03;3.13;;;32.10;38.60;;;;;;4879604;29;20112;-71
2022/07/20 09:35:28;;;;;;;4.22;2.67;;;32.20;38.40;;;;;;4885735;29;20048;-69
2022/07/20 09:37:56;;;;;;;7.55;3.00;;;32.20;38.30;;;;;;4884135;29;20056;-70
2022/07/20 09:40:25;;;;;;;7.85;3.03;;;32.30;38.00;;;;;;4886610;29;20048;-70
2022/07/20 09:42:52;;;;;;;;;;;32.40;37.70;;;;;;4885561;29;20128;-70
2022/07/20 09:45:25;;;;;;;5.80;2.50;;;32.50;37.50;;;;;;4886265;29;20269;-70
2022/07/20 09:48:07;;;;;;;5.85;2.67;;;32.60;37.70;;;;;;4884976;29;20059;-71
2022/07/20 09:50:37;;;;;;;4.70;2.40;;;32.70;37.70;;;;;;4886126;29;20174;-72
2022/07/20 09:53:05;;;;;;;6.22;2.67;;;32.80;37.70;;;;;;4889029;29;20494;-69
2022/07/20 09:55:34;;;;;;;6.43;2.80;;;32.80;37.60;;;;;;4883143;29;20053;-70
2022/07/20 09:58:02;;;;;;;3.92;2.40;;;32.90;37.60;;;;;;4880166;29;20052;-72
2022/07/20 10:00:29;;;;;;;4.40;2.25;;;32.90;37.60;;;;;;4882563;29;20126;-71
2022/07/20 10:02:58;;;;;;;7.03;2.40;;;33.00;37.50;;;;;;4883751;29;20479;-70
2022/07/20 10:05:31;;;;;;;4.97;2.55;;;33.00;37.00;;;;;;4885925;29;20052;-71
2022/07/20 10:08:01;;;;;;;6.45;2.97;;;33.10;36.70;;;;;;4887561;29;20056;-69
2022/07/20 10:10:30;;;;;;;5.65;2.63;;;33.20;36.70;;;;;;4887995;29;20056;-71
2022/07/20 10:12:59;;;;;;;4.22;2.00;;;33.30;36.60;;;;;;4877571;29;20907;-70
2022/07/20 10:15:36;;;;;;;4.47;2.42;;;33.40;36.20;;;;;;4890414;29;20419;-72
2022/07/20 10:18:07;;;;;;;7.40;2.60;;;33.50;36.20;;;;;;4888629;29;20056;-71
2022/07/20 10:20:36;;;;;;;4.60;2.20;;;33.50;36.00;;;;;;4889426;29;20048;-70
2022/07/20 10:23:33;;;;;;;5.60;2.30;;;33.50;35.90;;;;;;4879108;29;20059;-70
2022/07/20 10:26:01;;;;;;;4.28;2.40;;;33.70;35.70;;;;;;4827814;29;20050;-70
2022/07/20 10:28:35;;;;;;;4.35;1.77;;;33.80;35.30;;;;;;4873599;29;20470;-71
2022/07/20 10:31:06;;;;;;;3.03;1.80;;;34.00;34.90;;;;;;4889229;29;20052;-69
2022/07/20 10:33:35;;;;;;;9.27;2.30;;;34.10;35.00;;;;;;4872176;29;20049;-71
2022/07/20 10:39:43;;;;;;;4.65;2.95;;;34.20;34.50;;;;;;4878544;29;20064;-72
2022/07/20 10:42:24;;;;;;;5.88;3.05;;;34.40;34.20;;;;;;4883266;29;20049;-71
2022/07/20 10:44:53;;;;;;;6.57;3.35;;;34.40;34.40;;;;;;4882224;29;20060;-68
2022/07/20 10:47:43;;;;;;;6.82;3.50;;;34.50;34.50;;;;;;4877171;29;20064;-72
2022/07/20 10:50:17;;;;;;;7.32;3.90;;;34.40;34.30;;;;;;4877883;29;20054;-69
2022/07/20 10:52:45;;;;;;;7.50;3.67;;;34.30;34.30;;;;;;4866355;29;20049;-69
2022/07/20 10:55:52;;;;;;;7.82;4.43;;;34.40;34.00;;;;;;4885692;29;20064;-70
2022/07/20 10:58:22;;;;;;;10.95;4.97;;;34.40;33.70;;;;;;4884683;29;20143;-69
2022/07/20 11:00:52;;;;;;;9.38;5.72;;;34.60;33.90;;;;;;4890792;29;20132;-70
2022/07/20 11:03:21;;;;;;;8.98;5.68;;;34.70;34.10;;;;;;4886038;29;20052;-70
2022/07/20 11:05:59;;;;;;;10.68;5.60;;;34.60;33.90;;;;;;4877932;29;20052;-71
2022/07/20 11:08:26;;;;;;;9.18;5.60;;;34.70;33.80;;;;;;4881226;29;20134;-71
2022/07/20 11:10:54;;;;;;;7.55;4.78;;;34.70;33.60;;;;;;4873684;29;20189;-71
2022/07/20 11:13:21;;;;;;;8.60;4.40;;;34.80;33.10;;;;;;4880779;29;20059;-69
2022/07/20 11:15:50;;;;;;;7.25;4.07;;;34.70;33.30;;;;;;4879494;29;20059;-71
2022/07/20 11:18:20;;;;;;;7.18;4.22;;;34.60;33.00;;;;;;4889669;29;20141;-70
2022/07/20 11:20:49;;;;;;;7.93;4.57;;;34.70;33.10;;;;;;4878818;29;20053;-70
2022/07/20 11:23:18;;;;;;;7.15;4.07;;;34.70;33.20;;;;;;4887088;29;20061;-71
2022/07/20 11:25:45;;;;;;;;;;;34.70;33.00;;;;;;4889979;29;20048;-69
2022/07/20 11:28:12;;;;;;;5.32;3.40;;;34.80;33.00;;;;;;4891649;29;19934;-70
2022/07/20 11:30:39;;;;;;;7.93;3.97;;;35.00;32.20;;;;;;4886056;29;20064;-72
2022/07/20 11:33:08;;;;;;;7.55;4.20;;;35.10;32.50;;;;;;4885061;29;20065;-73
2022/07/20 11:35:34;;;;;;;;;;;35.30;32.50;;;;;;4900775;29;20063;-72
2022/07/20 11:38:01;;;;;;;5.63;3.10;;;35.20;32.60;;;;;;4885915;29;20077;-70
2022/07/20 11:40:28;;;;;;;6.85;4.80;;;35.20;32.40;;;;;;4887099;29;20085;-71
2022/07/20 11:43:06;;;;;;;5.95;3.75;;;35.20;32.40;;;;;;4870535;29;20550;-71
2022/07/20 11:45:33;;;;;;;;;;;35.30;32.20;;;;;;4887381;29;20063;-71
2022/07/20 11:48:03;;;;;;;6.63;3.88;;;35.30;32.20;;;;;;4876556;29;19939;-70
2022/07/20 11:50:34;;;;;;;9.05;4.97;;;35.20;32.30;;;;;;4881654;29;20053;-70
2022/07/20 11:53:01;;;;;;;8.57;5.15;;;35.30;32.30;;;;;;4885600;29;20053;-71
2022/07/20 11:55:37;;;;;;;8.25;4.68;;;35.30;32.20;;;;;;4887254;29;20044;-71
2022/07/20 11:58:04;;;;;;;8.10;4.38;;;35.20;32.40;;;;;;4885495;29;20468;-71
2022/07/20 12:00:31;;;;;;;7.82;4.95;;;35.20;32.30;;;;;;4872321;29;20077;-70
2022/07/20 12:02:59;;;;;;;9.15;5.50;;;35.20;32.00;;;;;;4885836;29;20399;-70
2022/07/20 12:05:26;;;;;;;10.75;6.57;;;35.30;32.00;;;;;;4880711;29;20048;-71
2022/07/20 12:08:12;;;;;;;12.07;5.95;;;35.30;32.10;;;;;;4882515;29;20135;-72
2022/07/20 12:10:42;;;;;;;9.20;5.80;;;35.30;32.00;;;;;;4873478;29;20049;-69
2022/07/20 12:13:09;;;;;;;7.43;4.53;;;35.40;31.80;;;;;;4883387;29;20056;-70
2022/07/20 12:15:37;;;;;;;8.10;3.70;;;35.30;31.70;;;;;;4882606;29;20055;-69
2022/07/20 12:18:04;;;;;;;5.95;3.30;;;35.30;31.80;;;;;;4895562;29;20055;-71
2022/07/20 12:20:32;;;;;;;6.60;3.05;;;35.20;31.70;;;;;;4870536;29;20526;-70
2022/07/20 12:23:02;;;;;;;5.85;2.90;;;35.00;31.80;;;;;;4893433;29;20071;-70
2022/07/20 12:25:38;;;;;;;5.68;2.40;;;34.90;31.40;;;;;;4895619;29;20064;-69
2022/07/20 12:28:06;;;;;;;5.57;2.55;;;34.70;31.40;;;;;;4898714;29;20052;-72
2022/07/20 12:30:37;;;;;;;4.85;2.63;;;34.50;31.60;;;;;;4889462;29;20057;-71
2022/07/20 12:33:06;;;;;;;5.88;2.63;;;34.50;31.70;;;;;;4895341;29;20056;-71
2022/07/20 12:35:34;;;;;;;6.40;2.88;;;34.40;32.00;;;;;;4897342;29;20081;-68
2022/07/20 12:38:03;;;;;;;5.70;2.80;;;34.50;31.80;;;;;;4892535;29;20059;-70
2022/07/20 12:40:37;;;;;;;6.05;2.92;;;34.50;31.80;;;;;;4893315;29;20174;-70
2022/07/20 12:43:05;;;;;;;6.65;2.80;;;34.50;32.30;;;;;;4886470;29;20049;-70
2022/07/20 12:45:32;;;;;;;;;;;34.50;31.60;;;;;;4877469;29;20631;-71
2022/07/20 12:48:00;;;;;;;5.37;2.77;;;34.50;31.70;;;;;;4887772;29;19924;-69
2022/07/20 12:50:27;;;;;;;4.50;2.78;;;34.50;32.50;;;;;;4892294;29;20396;-70
2022/07/20 12:52:54;;;;;;;9.02;2.75;;;34.40;31.80;;;;;;4900014;29;20056;-71
2022/07/20 12:55:22;;;;;;;7.53;2.78;;;34.50;31.60;;;;;;4896494;29;20056;-71
2022/07/20 12:57:49;;;;;;;6.78;3.00;;;34.70;30.90;;;;;;4891660;29;20055;-70
2022/07/20 13:00:17;;;;;;;5.47;3.30;;;34.90;30.80;;;;;;4887480;29;20391;-72